Terminal Aerodrome Forecast
Issued by NWS Cleveland, OH

Home | Current Version | Previous Version | Text Only | Print | Product List | Glossary On
Versions: 1 2 3 4 5 6 7 8 9 10 11 12 13 14 15 16 17 18 19 20 21 22 23 24 25 26 27 28
000
FTUS41 KCLE 151738
TAFYNG
TAF
KYNG 151738Z 1518/1618 20012G20KT P6SM VCSH OVC050
     FM152200 21012G20KT 5SM -SHRA VCTS OVC025CB
     FM160300 21010KT 4SM -SHRA BR OVC015
     FM160600 18007KT 3SM SHRA OVC008
     FM161000 19007KT 4SM -SHRA BR OVC003
     FM161600 23007KT 4SM -SHRA BR OVC008=

USA.gov is the U.S. government's official web portal to all federal, state and local government web resources and services.